Aviation Digital Data Service (ADDS)

Output produced by METARs form (2319 UTC 20 October 2017)
found at http://aviationweather.gov/adds/metars/
 
KFDY 201716Z 2017/2112 19007KT P6SM SKC